Flight Track Log - Related Links

Times and Time Zones

All times are in EDT time to prevent confusion due to time zone crossing. See the BER7688 flight status page for this flight to view local times or setup timezone preferences in your user account.

Time Position Orientation Groundspeed Altitude Reporting Facility
EDT Latitude Longitude Course Direction KTS MPH feet Rate Location/Type
Tue 08:57:00 AM 40.0541 1.7684 304° West  Level Estimated
Tue 08:58:00 AM 40.1095 1.6597 304° West  Level Estimated
Tue 08:59:00 AM 40.1647 1.5508 304° West  Level Estimated
Tue 09:00:00 AM 40.2198 1.4418 304° West  Level Estimated
Tue 09:01:00 AM 40.2748 1.3326 303° West  Level Estimated
Tue 09:02:00 AM 40.3297 1.2232 303° West  Level Estimated
Tue 09:03:00 AM 40.3845 1.1136 303° West  Level Estimated
Tue 09:04:00 AM 40.4393 1.0038 303° West  Level Estimated
Tue 09:05:00 AM 40.4939 0.8939 303° West  Level Estimated
Tue 09:06:00 AM 40.5484 0.7837 303° West  Level Estimated
Tue 09:07:00 AM 40.6028 0.6734 303° West  Level Estimated
Tue 09:08:00 AM 40.6571 0.5630 303° West  Level Estimated
Tue 09:09:00 AM 40.7112 0.4523 303° West  Level Estimated
Tue 09:10:00 AM 40.7653 0.3415 303° West  Level Estimated
Tue 09:11:00 AM 40.8193 0.2304 303° West  Level Estimated
Tue 09:12:00 AM 40.8732 0.1192 303° West  Level Estimated
Tue 09:13:00 AM 40.9269 0.0079 303° West  Level Estimated
Tue 09:14:00 AM 40.9806 -0.1037 303° West  Level Estimated
Tue 09:15:00 AM 41.0341 -0.2155 302° West  Level Estimated
Tue 09:16:00 AM 41.0876 -0.3274 302° West  Level Estimated
Tue 09:17:00 AM 41.1409 -0.4395 302° West  Level Estimated
Tue 09:18:00 AM 41.1941 -0.5518 302° West  Level Estimated
Tue 09:19:00 AM 41.2472 -0.6643 302° West  Level Estimated
Tue 09:20:00 AM 41.3002 -0.7769 302° West  Level Estimated
Tue 09:21:00 AM 41.3531 -0.8898 302° West  Level Estimated
Tue 09:22:00 AM 41.4059 -1.0028 302° West  Level Estimated
Tue 09:23:00 AM 41.4585 -1.1160 302° West  Level Estimated
Tue 09:24:00 AM 41.5111 -1.2294 302° West  Level Estimated
Tue 09:25:00 AM 41.5636 -1.3429 302° West  Level Estimated
Tue 09:26:00 AM 41.6159 -1.4567 302° West  Level Estimated
Tue 09:27:00 AM 41.6681 -1.5706 302° West  Level Estimated
Tue 09:28:00 AM 41.7202 -1.6848 301° West  Level Estimated
Tue 09:29:00 AM 41.7722 -1.7991 301° West  Level Estimated
Tue 09:30:00 AM 41.8241 -1.9136 301° West  Level Estimated
Tue 09:31:00 AM 41.8759 -2.0283 301° West  Level Estimated
Tue 09:32:00 AM 41.9275 -2.1431 301° West  Level Estimated
Tue 09:33:00 AM 41.9791 -2.2582 301° West  Level Estimated
Tue 09:34:00 AM 42.0305 -2.3734 301° West  Level Estimated
Tue 09:35:00 AM 42.0818 -2.4889 301° West  Level Estimated
Tue 09:36:00 AM 42.1330 -2.6045 301° West  Level Estimated
Tue 09:37:00 AM 42.1841 -2.7203 301° West  Level Estimated
Tue 09:38:00 AM 42.2350 -2.8363 301° West  Level Estimated
Tue 09:39:00 AM 42.2859 -2.9524 301° West  Level Estimated
Tue 09:40:00 AM 42.3366 -3.0688 301° West  Level Estimated
Tue 09:41:00 AM 42.3872 -3.1853 300° West  Level Estimated
Tue 09:42:00 AM 42.4377 -3.3021 300° West  Level Estimated
Tue 09:43:00 AM 42.4881 -3.4190 300° West  Level Estimated
Tue 09:44:00 AM 42.5383 -3.5361 300° West  Level Estimated
Tue 09:45:00 AM 42.5885 -3.6534 300° West  Level Estimated
Tue 09:46:00 AM 42.6385 -3.7709 300° West  Level Estimated
Tue 09:47:00 AM 42.6884 -3.8886 300° West  Level Estimated
Tue 09:48:00 AM 42.7381 -4.0065 300° West  Level Estimated
Tue 09:49:00 AM 42.7878 -4.1245 300° West  Level Estimated
Tue 09:50:00 AM 42.8373 -4.2428 300° West  Level Estimated
Tue 09:51:00 AM 42.8867 -4.3612 300° West  Level Estimated
Tue 09:52:00 AM 42.9360 -4.4799 300° West  Level Estimated
Tue 09:53:00 AM 42.9852 -4.5987 300° West  Level Estimated
Tue 09:54:00 AM 43.0342 -4.7177 299° West  Level Estimated
Tue 09:55:00 AM 43.0831 -4.8369 299° West  Level Estimated
Tue 09:56:00 AM 43.1319 -4.9563 299° West  Level Estimated
Tue 09:57:00 AM 43.1806 -5.0759 299° West  Level Estimated
Tue 09:58:00 AM 43.2291 -5.1956 299° West  Level Estimated
Tue 09:59:00 AM 43.2775 -5.3156 299° West  Level Estimated
Tue 10:00:00 AM 43.3259 -5.4357 299° West  Level Estimated
Tue 10:01:00 AM 43.3740 -5.5561 299° West  Level Estimated
Tue 10:02:00 AM 43.4221 -5.6766 299° West  Level Estimated
Tue 10:03:00 AM 43.4700 -5.7973 299° West  Level Estimated
Tue 10:04:00 AM 43.5178 -5.9183 299° West  Level Estimated
Tue 10:05:00 AM 43.5636 -6.0346 299° West  Level Estimated
Tue 10:06:00 AM 43.5636 -6.0346 206° Southwest  Level Estimated
Tue 10:07:00 AM 43.5636 -6.0346 206° Southwest  Level Estimated
Tue 10:08:00 AM 43.5636 -6.0346 206° Southwest  Level Estimated
Tue 10:09:00 AM 43.5636 -6.0346 206° Southwest  Level Estimated
Tue 10:10:00 AM 43.5636 -6.0346 206° Southwest  Level Estimated
Tue 10:11:00 AM 43.5636 -6.0346 206° Southwest  Level Estimated
Tue 10:12:00 AM 43.5636 -6.0346 206° Southwest  Level Estimated
Tue 10:13:00 AM 43.5636 -6.0346 206° Southwest  Level Estimated
Tue 10:14:00 AM 43.5636 -6.0346 206° Southwest  Level Estimated
Tue 10:15:00 AM 43.5636 -6.0346 206° Southwest  Level Estimated
Tue 10:16:00 AM 43.5636 -6.0346 206° Southwest  Level Estimated
Tue 10:17:00 AM 43.5636 -6.0346 206° Southwest  Level Estimated
Tue 10:18:00 AM 43.5636 -6.0346 206° Southwest  Level Estimated
Tue 10:19:00 AM 43.5636 -6.0346 206° Southwest  Level Estimated
Tue 10:20:00 AM 43.5636 -6.0346 206° Southwest  Level Estimated
Tue 10:21:00 AM 43.5636 -6.0346 206° Southwest  Level Estimated

Login

Don't have an account? Register now (free) for customized features, flight alerts, and more!